sensor_id;sensor_type;location;lat;lon;timestamp;pressure;altitude;pressure_sealevel;temperature
19102;BMP280;9683;49.028;12.064;2023-02-01T00:02:15;97605.91;;;5.41
19102;BMP280;9683;49.028;12.064;2023-02-01T00:04:41;97605.25;;;5.39
19102;BMP280;9683;49.028;12.064;2023-02-01T00:07:08;97604.09;;;5.42
19102;BMP280;9683;49.028;12.064;2023-02-01T00:09:34;97605.25;;;5.39
19102;BMP280;9683;49.028;12.064;2023-02-01T00:12:01;97598.53;;;5.37
19102;BMP280;9683;49.028;12.064;2023-02-01T00:14:30;97593.25;;;5.37
19102;BMP280;9683;49.028;12.064;2023-02-01T00:17:03;97597.88;;;5.35
19102;BMP280;9683;49.028;12.064;2023-02-01T00:19:30;97595.06;;;5.36
19102;BMP280;9683;49.028;12.064;2023-02-01T00:21:56;97589.19;;;5.34
19102;BMP280;9683;49.028;12.064;2023-02-01T00:24:23;97590.50;;;5.30
19102;BMP280;9683;49.028;12.064;2023-02-01T00:26:49;97592.97;;;5.32
19102;BMP280;9683;49.028;12.064;2023-02-01T00:29:17;97594.78;;;5.31
19102;BMP280;9683;49.028;12.064;2023-02-01T00:31:46;97589.19;;;5.34
19102;BMP280;9683;49.028;12.064;2023-02-01T00:34:16;97597.44;;;5.31
19102;BMP280;9683;49.028;12.064;2023-02-01T00:36:43;97597.34;;;5.25
19102;BMP280;9683;49.028;12.064;2023-02-01T00:39:10;97599.88;;;5.18
19102;BMP280;9683;49.028;12.064;2023-02-01T00:41:37;97594.34;;;5.13
19102;BMP280;9683;49.028;12.064;2023-02-01T00:44:05;97594.97;;;5.15
19102;BMP280;9683;49.028;12.064;2023-02-01T00:46:32;97579.69;;;5.11
19102;BMP280;9683;49.028;12.064;2023-02-01T00:48:59;97585.50;;;5.06
19102;BMP280;9683;49.028;12.064;2023-02-01T00:51:28;97583.03;;;5.04
19102;BMP280;9683;49.028;12.064;2023-02-01T00:53:55;97586.22;;;5.00
19102;BMP280;9683;49.028;12.064;2023-02-01T00:56:22;97576.31;;;5.02
19102;BMP280;9683;49.028;12.064;2023-02-01T00:58:48;97585.41;;;4.99
19102;BMP280;9683;49.028;12.064;2023-02-01T01:01:16;97580.13;;;4.99
19102;BMP280;9683;49.028;12.064;2023-02-01T01:03:45;97573.56;;;4.95
19102;BMP280;9683;49.028;12.064;2023-02-01T01:06:15;97571.56;;;4.97
19102;BMP280;9683;49.028;12.064;2023-02-01T01:08:42;97567.31;;;4.96
19102;BMP280;9683;49.028;12.064;2023-02-01T01:11:12;97571.75;;;4.96
19102;BMP280;9683;49.028;12.064;2023-02-01T01:13:39;97571.56;;;4.97
19102;BMP280;9683;49.028;12.064;2023-02-01T01:16:08;97577.84;;;4.96
19102;BMP280;9683;49.028;12.064;2023-02-01T01:18:35;97577.50;;;4.99
19102;BMP280;9683;49.028;12.064;2023-02-01T01:21:04;97575.69;;;5.00
19102;BMP280;9683;49.028;12.064;2023-02-01T01:23:32;97568.59;;;5.00
19102;BMP280;9683;49.028;12.064;2023-02-01T01:25:59;97585.94;;;4.95
19102;BMP280;9683;49.028;12.064;2023-02-01T01:28:25;97571.41;;;4.99
19102;BMP280;9683;49.028;12.064;2023-02-01T01:30:52;97570.13;;;4.95
19102;BMP280;9683;49.028;12.064;2023-02-01T01:33:18;97569.13;;;4.96
19102;BMP280;9683;49.028;12.064;2023-02-01T01:35:45;97571.75;;;4.96
19102;BMP280;9683;49.028;12.064;2023-02-01T01:38:11;97574.72;;;4.93
19102;BMP280;9683;49.028;12.064;2023-02-01T01:40:39;97568.47;;;4.94
19102;BMP280;9683;49.028;12.064;2023-02-01T01:43:13;97563.50;;;4.99
19102;BMP280;9683;49.028;12.064;2023-02-01T01:45:40;97563.66;;;4.97
19102;BMP280;9683;49.028;12.064;2023-02-01T01:48:10;97565.75;;;5.02
19102;BMP280;9683;49.028;12.064;2023-02-01T01:50:44;97557.84;;;5.02
19102;BMP280;9683;49.028;12.064;2023-02-01T01:53:16;97575.69;;;5.00
19102;BMP280;9683;49.028;12.064;2023-02-01T01:55:47;97557.22;;;5.00
19102;BMP280;9683;49.028;12.064;2023-02-01T01:58:17;97549.13;;;5.01
19102;BMP280;9683;49.028;12.064;2023-02-01T02:00:45;97560.31;;;5.03
19102;BMP280;9683;49.028;12.064;2023-02-01T02:03:15;97543.03;;;5.01
19102;BMP280;9683;49.028;12.064;2023-02-01T02:05:42;97534.50;;;4.99
19102;BMP280;9683;49.028;12.064;2023-02-01T02:08:10;97537.50;;;4.96
19102;BMP280;9683;49.028;12.064;2023-02-01T02:10:37;97542.84;;;5.02
19102;BMP280;9683;49.028;12.064;2023-02-01T02:13:23;97542.69;;;5.04
19102;BMP280;9683;49.028;12.064;2023-02-01T02:15:59;97535.78;;;5.03
19102;BMP280;9683;49.028;12.064;2023-02-01T02:18:34;97544.94;;;5.07
19102;BMP280;9683;49.028;12.064;2023-02-01T02:21:12;97532.22;;;5.11
19102;BMP280;9683;49.028;12.064;2023-02-01T02:24:21;97534.69;;;5.12
19102;BMP280;9683;49.028;12.064;2023-02-01T02:26:56;97529.13;;;5.07
19102;BMP280;9683;49.028;12.064;2023-02-01T02:30:07;97526.34;;;5.08
19102;BMP280;9683;49.028;12.064;2023-02-01T02:33:35;97526.94;;;5.11
19102;BMP280;9683;49.028;12.064;2023-02-01T02:36:10;97525.41;;;5.16
19102;BMP280;9683;49.028;12.064;2023-02-01T02:38:46;97524.06;;;5.20
19102;BMP280;9683;49.028;12.064;2023-02-01T02:41:16;97526.16;;;5.25
19102;BMP280;9683;49.028;12.064;2023-02-01T02:43:58;97529.78;;;5.24
19102;BMP280;9683;49.028;12.064;2023-02-01T02:46:47;97524.50;;;5.24
19102;BMP280;9683;49.028;12.064;2023-02-01T02:49:34;97518.03;;;5.26
19102;BMP280;9683;49.028;12.064;2023-02-01T02:52:04;97522.25;;;5.21
19102;BMP280;9683;49.028;12.064;2023-02-01T02:54:50;97519.31;;;5.16
19102;BMP280;9683;49.028;12.064;2023-02-01T02:57:22;97521.97;;;5.16
19102;BMP280;9683;49.028;12.064;2023-02-01T03:00:11;97528.06;;;5.16
19102;BMP280;9683;49.028;12.064;2023-02-01T03:02:55;97520.31;;;5.15
19102;BMP280;9683;49.028;12.064;2023-02-01T03:05:44;97514.69;;;5.18
19102;BMP280;9683;49.028;12.064;2023-02-01T03:08:12;97509.31;;;5.11
19102;BMP280;9683;49.028;12.064;2023-02-01T03:10:48;97510.59;;;5.15
19102;BMP280;9683;49.028;12.064;2023-02-01T03:13:19;97514.88;;;5.16
19102;BMP280;9683;49.028;12.064;2023-02-01T03:15:50;97511.03;;;5.19
19102;BMP280;9683;49.028;12.064;2023-02-01T03:18:22;97518.78;;;5.20
19102;BMP280;9683;49.028;12.064;2023-02-01T03:20:53;97512.69;;;5.20
19102;BMP280;9683;49.028;12.064;2023-02-01T03:23:25;97504.78;;;5.20
19102;BMP280;9683;49.028;12.064;2023-02-01T03:25:53;97504.94;;;5.18
19102;BMP280;9683;49.028;12.064;2023-02-01T03:28:22;97509.88;;;5.21
19102;BMP280;9683;49.028;12.064;2023-02-01T03:30:49;97496.50;;;5.23
19102;BMP280;9683;49.028;12.064;2023-02-01T03:33:18;97503.41;;;5.24
19102;BMP280;9683;49.028;12.064;2023-02-01T03:35:57;97497.13;;;5.25
19102;BMP280;9683;49.028;12.064;2023-02-01T03:38:28;97490.06;;;5.25
19102;BMP280;9683;49.028;12.064;2023-02-01T03:41:02;97483.22;;;5.31
19102;BMP280;9683;49.028;12.064;2023-02-01T03:43:32;97482.59;;;5.29
19102;BMP280;9683;49.028;12.064;2023-02-01T03:46:04;97469.03;;;5.32
19102;BMP280;9683;49.028;12.064;2023-02-01T03:48:33;97455.84;;;5.32
19102;BMP280;9683;49.028;12.064;2023-02-01T03:51:04;97458.47;;;5.32
19102;BMP280;9683;49.028;12.064;2023-02-01T03:53:33;97454.66;;;5.34
19102;BMP280;9683;49.028;12.064;2023-02-01T03:56:02;97456.56;;;5.40
19102;BMP280;9683;49.028;12.064;2023-02-01T03:58:29;97465.00;;;5.36
19102;BMP280;9683;49.028;12.064;2023-02-01T04:00:57;97467.94;;;5.41
19102;BMP280;9683;49.028;12.064;2023-02-01T04:03:26;97476.09;;;5.46
19102;BMP280;9683;49.028;12.064;2023-02-01T04:05:53;97475.72;;;5.49
19102;BMP280;9683;49.028;12.064;2023-02-01T04:08:22;97469.00;;;5.46
19102;BMP280;9683;49.028;12.064;2023-02-01T04:10:49;97472.38;;;5.40
19102;BMP280;9683;49.028;12.064;2023-02-01T04:13:16;97469.38;;;5.43
19102;BMP280;9683;49.028;12.064;2023-02-01T04:15:42;97466.50;;;5.38
19102;BMP280;9683;49.028;12.064;2023-02-01T04:18:10;97468.75;;;5.41
19102;BMP280;9683;49.028;12.064;2023-02-01T04:20:37;97464.72;;;5.45
19102;BMP280;9683;49.028;12.064;2023-02-01T04:23:03;97492.75;;;5.46
19102;BMP280;9683;49.028;12.064;2023-02-01T04:25:31;97480.56;;;5.45
19102;BMP280;9683;49.028;12.064;2023-02-01T04:27:58;97473.66;;;5.44
19102;BMP280;9683;49.028;12.064;2023-02-01T04:30:25;97475.09;;;5.47
19102;BMP280;9683;49.028;12.064;2023-02-01T04:32:51;97478.19;;;5.50
19102;BMP280;9683;49.028;12.064;2023-02-01T04:35:18;97478.19;;;5.50
19102;BMP280;9683;49.028;12.064;2023-02-01T04:37:44;97467.09;;;5.55
19102;BMP280;9683;49.028;12.064;2023-02-01T04:40:11;97466.06;;;5.56
19102;BMP280;9683;49.028;12.064;2023-02-01T04:42:39;97460.88;;;5.63
19102;BMP280;9683;49.028;12.064;2023-02-01T04:45:07;97440.94;;;5.60
19102;BMP280;9683;49.028;12.064;2023-02-01T04:47:34;97440.94;;;5.60
19102;BMP280;9683;49.028;12.064;2023-02-01T04:50:00;97443.97;;;5.57
19102;BMP280;9683;49.028;12.064;2023-02-01T04:52:27;97449.69;;;5.61
19102;BMP280;9683;49.028;12.064;2023-02-01T04:54:54;97439.50;;;5.58
19102;BMP280;9683;49.028;12.064;2023-02-01T04:57:22;97435.88;;;5.59
19102;BMP280;9683;49.028;12.064;2023-02-01T04:59:50;97428.22;;;5.64
19102;BMP280;9683;49.028;12.064;2023-02-01T05:02:17;97455.41;;;5.64
19102;BMP280;9683;49.028;12.064;2023-02-01T05:04:43;97428.56;;;5.61
19102;BMP280;9683;49.028;12.064;2023-02-01T05:07:10;97432.47;;;5.65
19102;BMP280;9683;49.028;12.064;2023-02-01T05:09:37;97431.72;;;5.71
19102;BMP280;9683;49.028;12.064;2023-02-01T05:12:04;97431.72;;;5.71
19102;BMP280;9683;49.028;12.064;2023-02-01T05:14:48;97426.44;;;5.71
19102;BMP280;9683;49.028;12.064;2023-02-01T05:17:16;97419.34;;;5.71
19102;BMP280;9683;49.028;12.064;2023-02-01T05:19:43;97414.44;;;5.68
19102;BMP280;9683;49.028;12.064;2023-02-01T05:22:09;97420.34;;;5.70
19102;BMP280;9683;49.028;12.064;2023-02-01T05:24:36;97424.44;;;5.73
19102;BMP280;9683;49.028;12.064;2023-02-01T05:27:02;97417.97;;;5.75
19102;BMP280;9683;49.028;12.064;2023-02-01T05:29:29;97408.03;;;5.77
19102;BMP280;9683;49.028;12.064;2023-02-01T05:31:56;97410.66;;;5.77
19102;BMP280;9683;49.028;12.064;2023-02-01T05:34:24;97400.53;;;5.81
19102;BMP280;9683;49.028;12.064;2023-02-01T05:36:51;97399.94;;;5.79
19102;BMP280;9683;49.028;12.064;2023-02-01T05:39:17;97395.09;;;5.82
19102;BMP280;9683;49.028;12.064;2023-02-01T05:41:44;97399.75;;;5.80
19102;BMP280;9683;49.028;12.064;2023-02-01T05:44:11;97400.75;;;5.79
19102;BMP280;9683;49.028;12.064;2023-02-01T05:46:38;97404.56;;;5.77
19102;BMP280;9683;49.028;12.064;2023-02-01T05:49:05;97404.22;;;5.80
19102;BMP280;9683;49.028;12.064;2023-02-01T05:51:33;97391.03;;;5.80
19102;BMP280;9683;49.028;12.064;2023-02-01T05:54:00;97389.44;;;5.85
19102;BMP280;9683;49.028;12.064;2023-02-01T05:56:26;97389.44;;;5.85
19102;BMP280;9683;49.028;12.064;2023-02-01T05:58:53;97380.06;;;5.83
19102;BMP280;9683;49.028;12.064;2023-02-01T06:01:20;97379.06;;;5.84
19102;BMP280;9683;49.028;12.064;2023-02-01T06:03:46;97382.53;;;5.84
19102;BMP280;9683;49.028;12.064;2023-02-01T06:06:13;97383.09;;;5.80
19102;BMP280;9683;49.028;12.064;2023-02-01T06:08:41;97378.09;;;5.85
19102;BMP280;9683;49.028;12.064;2023-02-01T06:11:07;97377.91;;;5.86
19102;BMP280;9683;49.028;12.064;2023-02-01T06:13:34;97372.44;;;5.88
19102;BMP280;9683;49.028;12.064;2023-02-01T06:16:04;97373.81;;;5.84
19102;BMP280;9683;49.028;12.064;2023-02-01T06:18:32;97376.22;;;5.85
19102;BMP280;9683;49.028;12.064;2023-02-01T06:21:00;97375.50;;;5.91
19102;BMP280;9683;49.028;12.064;2023-02-01T06:23:28;97367.16;;;5.88
19102;BMP280;9683;49.028;12.064;2023-02-01T06:26:00;97375.78;;;5.82
19102;BMP280;9683;49.028;12.064;2023-02-01T06:28:27;97367.28;;;5.80
19102;BMP280;9683;49.028;12.064;2023-02-01T06:30:54;97373.38;;;5.80
19102;BMP280;9683;49.028;12.064;2023-02-01T06:33:21;97369.91;;;5.80
19102;BMP280;9683;49.028;12.064;2023-02-01T06:35:47;97367.97;;;5.67
19102;BMP280;9683;49.028;12.064;2023-02-01T06:38:14;97361.47;;;5.70
19102;BMP280;9683;49.028;12.064;2023-02-01T06:40:41;97362.72;;;5.74
19102;BMP280;9683;49.028;12.064;2023-02-01T06:43:09;97368.00;;;5.74
19102;BMP280;9683;49.028;12.064;2023-02-01T06:45:36;97376.63;;;5.61
19102;BMP280;9683;49.028;12.064;2023-02-01T06:48:04;97363.03;;;5.64
19102;BMP280;9683;49.028;12.064;2023-02-01T06:50:30;97373.59;;;5.64
19102;BMP280;9683;49.028;12.064;2023-02-01T06:52:57;97364.28;;;5.68
19102;BMP280;9683;49.028;12.064;2023-02-01T06:55:23;97367.53;;;5.64
19102;BMP280;9683;49.028;12.064;2023-02-01T06:57:53;97369.78;;;5.67
19102;BMP280;9683;49.028;12.064;2023-02-01T07:00:22;97372.41;;;5.67
19102;BMP280;9683;49.028;12.064;2023-02-01T07:02:49;97373.81;;;5.63
19102;BMP280;9683;49.028;12.064;2023-02-01T07:05:16;97364.44;;;5.60
19102;BMP280;9683;49.028;12.064;2023-02-01T07:07:43;97383.09;;;5.59
19102;BMP280;9683;49.028;12.064;2023-02-01T07:10:10;97367.00;;;5.53
19102;BMP280;9683;49.028;12.064;2023-02-01T07:12:37;97382.78;;;5.68
19102;BMP280;9683;49.028;12.064;2023-02-01T07:15:04;97387.94;;;5.76
19102;BMP280;9683;49.028;12.064;2023-02-01T07:17:33;97390.75;;;5.75
19102;BMP280;9683;49.028;12.064;2023-02-01T07:19:59;97394.47;;;5.80
19102;BMP280;9683;49.028;12.064;2023-02-01T07:22:26;97395.72;;;5.84
19102;BMP280;9683;49.028;12.064;2023-02-01T07:24:53;97402.19;;;5.82
19102;BMP280;9683;49.028;12.064;2023-02-01T07:27:20;97417.22;;;5.81
19102;BMP280;9683;49.028;12.064;2023-02-01T07:29:50;97427.72;;;5.75
19102;BMP280;9683;49.028;12.064;2023-02-01T07:32:16;97461.59;;;5.57
19102;BMP280;9683;49.028;12.064;2023-02-01T07:34:45;97447.81;;;5.40
19102;BMP280;9683;49.028;12.064;2023-02-01T07:37:11;97433.16;;;5.16
19102;BMP280;9683;49.028;12.064;2023-02-01T07:39:38;97433.63;;;5.05
19102;BMP280;9683;49.028;12.064;2023-02-01T07:42:05;97439.34;;;4.94
19102;BMP280;9683;49.028;12.064;2023-02-01T07:44:32;97426.34;;;4.92
19102;BMP280;9683;49.028;12.064;2023-02-01T07:46:59;97439.53;;;4.92
19102;BMP280;9683;49.028;12.064;2023-02-01T07:49:26;97423.97;;;4.97
19102;BMP280;9683;49.028;12.064;2023-02-01T07:51:54;97419.06;;;4.94
19102;BMP280;9683;49.028;12.064;2023-02-01T07:54:20;97422.91;;;4.92
19102;BMP280;9683;49.028;12.064;2023-02-01T07:56:47;97406.28;;;4.91
19102;BMP280;9683;49.028;12.064;2023-02-01T07:59:13;97436.06;;;4.92
19102;BMP280;9683;49.028;12.064;2023-02-01T08:01:41;97420.44;;;4.90
19102;BMP280;9683;49.028;12.064;2023-02-01T08:04:09;97417.09;;;4.96
19102;BMP280;9683;49.028;12.064;2023-02-01T08:06:37;97425.16;;;4.95
19102;BMP280;9683;49.028;12.064;2023-02-01T08:09:05;97413.88;;;5.01
19102;BMP280;9683;49.028;12.064;2023-02-01T08:11:33;97412.25;;;5.00
19102;BMP280;9683;49.028;12.064;2023-02-01T08:14:01;97419.97;;;5.01
19102;BMP280;9683;49.028;12.064;2023-02-01T08:16:28;97411.72;;;5.04
19102;BMP280;9683;49.028;12.064;2023-02-01T08:18:55;97412.78;;;5.10
19102;BMP280;9683;49.028;12.064;2023-02-01T08:21:23;97420.34;;;5.13
19102;BMP280;9683;49.028;12.064;2023-02-01T08:23:50;97423.41;;;5.17
19102;BMP280;9683;49.028;12.064;2023-02-01T08:26:19;97427.94;;;5.23
19102;BMP280;9683;49.028;12.064;2023-02-01T08:28:48;97425.56;;;5.28
19102;BMP280;9683;49.028;12.064;2023-02-01T08:31:17;97430.13;;;5.34
19102;BMP280;9683;49.028;12.064;2023-02-01T08:33:49;97426.28;;;5.36
19102;BMP280;9683;49.028;12.064;2023-02-01T08:36:16;97422.44;;;5.39
19102;BMP280;9683;49.028;12.064;2023-02-01T08:38:43;97426.34;;;5.43
19102;BMP280;9683;49.028;12.064;2023-02-01T08:41:11;97415.22;;;5.47
19102;BMP280;9683;49.028;12.064;2023-02-01T08:43:40;97419.06;;;5.45
19102;BMP280;9683;49.028;12.064;2023-02-01T08:46:08;97413.63;;;5.46
19102;BMP280;9683;49.028;12.064;2023-02-01T08:48:35;97427.25;;;5.50
19102;BMP280;9683;49.028;12.064;2023-02-01T08:51:03;97409.06;;;5.40
19102;BMP280;9683;49.028;12.064;2023-02-01T08:53:30;97414.69;;;5.52
19102;BMP280;9683;49.028;12.064;2023-02-01T08:55:57;97413.50;;;5.54
19102;BMP280;9683;49.028;12.064;2023-02-01T08:58:24;97417.75;;;5.55
19102;BMP280;9683;49.028;12.064;2023-02-01T09:00:52;97408.03;;;5.56
19102;BMP280;9683;49.028;12.064;2023-02-01T09:03:18;97406.75;;;5.52
19102;BMP280;9683;49.028;12.064;2023-02-01T09:05:45;97407.31;;;5.47
19102;BMP280;9683;49.028;12.064;2023-02-01T09:08:13;97423.41;;;5.52
19102;BMP280;9683;49.028;12.064;2023-02-01T09:10:40;97415.38;;;5.61
19102;BMP280;9683;49.028;12.064;2023-02-01T09:13:07;97395.09;;;5.61
19102;BMP280;9683;49.028;12.064;2023-02-01T09:15:34;97398.59;;;5.68
19102;BMP280;9683;49.028;12.064;2023-02-01T09:18:03;97421.22;;;5.77
19102;BMP280;9683;49.028;12.064;2023-02-01T09:20:29;97424.44;;;5.73
19102;BMP280;9683;49.028;12.064;2023-02-01T09:22:56;97410.50;;;5.79
19102;BMP280;9683;49.028;12.064;2023-02-01T09:25:23;97421.88;;;5.79
19102;BMP280;9683;49.028;12.064;2023-02-01T09:27:49;97458.44;;;5.82
19102;BMP280;9683;49.028;12.064;2023-02-01T09:30:16;97435.69;;;5.81
19102;BMP280;9683;49.028;12.064;2023-02-01T09:32:43;97425.34;;;5.80
19102;BMP280;9683;49.028;12.064;2023-02-01T09:35:11;97440.34;;;5.79
19102;BMP280;9683;49.028;12.064;2023-02-01T09:37:38;97452.97;;;5.84
19102;BMP280;9683;49.028;12.064;2023-02-01T09:40:05;97442.41;;;5.84
19102;BMP280;9683;49.028;12.064;2023-02-01T09:42:45;97505.13;;;5.82
19102;BMP280;9683;49.028;12.064;2023-02-01T09:45:21;97446.25;;;5.81
19102;BMP280;9683;49.028;12.064;2023-02-01T09:47:54;97430.97;;;5.77
19102;BMP280;9683;49.028;12.064;2023-02-01T09:50:28;97447.69;;;5.84
19102;BMP280;9683;49.028;12.064;2023-02-01T09:53:00;97455.97;;;5.81
19102;BMP280;9683;49.028;12.064;2023-02-01T09:55:35;97445.69;;;5.86
19102;BMP280;9683;49.028;12.064;2023-02-01T09:58:03;97448.06;;;5.81
19102;BMP280;9683;49.028;12.064;2023-02-01T10:00:35;97468.63;;;5.85
19102;BMP280;9683;49.028;12.064;2023-02-01T10:03:03;97455.81;;;5.82
19102;BMP280;9683;49.028;12.064;2023-02-01T10:05:46;97453.59;;;5.86
19102;BMP280;9683;49.028;12.064;2023-02-01T10:08:19;97450.63;;;5.89
19102;BMP280;9683;49.028;12.064;2023-02-01T10:10:52;97460.69;;;5.85
19102;BMP280;9683;49.028;12.064;2023-02-01T10:13:32;97452.34;;;5.82
19102;BMP280;9683;49.028;12.064;2023-02-01T10:16:13;97448.06;;;5.81
19102;BMP280;9683;49.028;12.064;2023-02-01T10:19:01;97444.06;;;5.85
19102;BMP280;9683;49.028;12.064;2023-02-01T10:21:48;97441.59;;;5.83
19102;BMP280;9683;49.028;12.064;2023-02-01T10:24:25;97435.31;;;5.84
19102;BMP280;9683;49.028;12.064;2023-02-01T10:26:59;97434.31;;;5.85
19102;BMP280;9683;49.028;12.064;2023-02-01T10:29:32;97457.00;;;5.80
19102;BMP280;9683;49.028;12.064;2023-02-01T10:32:01;97450.34;;;5.84
19102;BMP280;9683;49.028;12.064;2023-02-01T10:34:31;97418.84;;;5.82
19102;BMP280;9683;49.028;12.064;2023-02-01T10:37:11;97447.16;;;5.88
19102;BMP280;9683;49.028;12.064;2023-02-01T10:39:44;97460.59;;;5.93
19102;BMP280;9683;49.028;12.064;2023-02-01T10:42:11;97431.47;;;6.02
19102;BMP280;9683;49.028;12.064;2023-02-01T10:44:41;97476.97;;;6.04
19102;BMP280;9683;49.028;12.064;2023-02-01T10:47:11;97433.41;;;6.14
19102;BMP280;9683;49.028;12.064;2023-02-01T10:49:41;97450.50;;;6.18
19102;BMP280;9683;49.028;12.064;2023-02-01T10:52:14;97454.41;;;6.22
19102;BMP280;9683;49.028;12.064;2023-02-01T10:54:42;97456.56;;;6.19
19102;BMP280;9683;49.028;12.064;2023-02-01T10:57:10;97461.41;;;6.15
19102;BMP280;9683;49.028;12.064;2023-02-01T10:59:45;97486.44;;;5.98
19102;BMP280;9683;49.028;12.064;2023-02-01T11:02:20;97499.09;;;5.52
19102;BMP280;9683;49.028;12.064;2023-02-01T11:04:58;97510.31;;;4.95
19102;BMP280;9683;49.028;12.064;2023-02-01T11:07:28;97503.38;;;4.65
19102;BMP280;9683;49.028;12.064;2023-02-01T11:09:55;97525.59;;;4.48
19102;BMP280;9683;49.028;12.064;2023-02-01T11:12:32;97503.16;;;4.52
19102;BMP280;9683;49.028;12.064;2023-02-01T11:15:03;97471.75;;;4.65
19102;BMP280;9683;49.028;12.064;2023-02-01T11:17:40;97482.50;;;4.78
19102;BMP280;9683;49.028;12.064;2023-02-01T11:20:16;97514.31;;;4.91
19102;BMP280;9683;49.028;12.064;2023-02-01T11:22:48;97488.97;;;5.05
19102;BMP280;9683;49.028;12.064;2023-02-01T11:25:19;97476.69;;;5.12
19102;BMP280;9683;49.028;12.064;2023-02-01T11:27:47;97478.56;;;5.18
19102;BMP280;9683;49.028;12.064;2023-02-01T11:30:16;97464.13;;;5.29
19102;BMP280;9683;49.028;12.064;2023-02-01T11:32:45;97464.41;;;5.34
19102;BMP280;9683;49.028;12.064;2023-02-01T11:35:17;97448.25;;;5.43
19102;BMP280;9683;49.028;12.064;2023-02-01T11:37:50;97459.28;;;5.47
19102;BMP280;9683;49.028;12.064;2023-02-01T11:40:27;97460.56;;;5.51
19102;BMP280;9683;49.028;12.064;2023-02-01T11:42:56;97496.28;;;5.53
19102;BMP280;9683;49.028;12.064;2023-02-01T11:45:28;97462.25;;;5.59
19102;BMP280;9683;49.028;12.064;2023-02-01T11:47:55;97480.91;;;5.57
19102;BMP280;9683;49.028;12.064;2023-02-01T11:50:29;97428.81;;;5.66
19102;BMP280;9683;49.028;12.064;2023-02-01T11:53:24;97449.56;;;5.69
19102;BMP280;9683;49.028;12.064;2023-02-01T11:56:06;97416.50;;;5.73
19102;BMP280;9683;49.028;12.064;2023-02-01T11:58:50;97417.75;;;5.77
19102;BMP280;9683;49.028;12.064;2023-02-01T12:01:42;97416.59;;;5.79
19102;BMP280;9683;49.028;12.064;2023-02-01T12:07:16;97405.81;;;5.95
19102;BMP280;9683;49.028;12.064;2023-02-01T12:10:00;97441.38;;;5.99
19102;BMP280;9683;49.028;12.064;2023-02-01T12:12:42;97409.13;;;6.04
19102;BMP280;9683;49.028;12.064;2023-02-01T12:15:24;97394.16;;;6.11
19102;BMP280;9683;49.028;12.064;2023-02-01T12:18:34;97410.81;;;6.12
19102;BMP280;9683;49.028;12.064;2023-02-01T12:21:20;97419.00;;;6.17
19102;BMP280;9683;49.028;12.064;2023-02-01T12:24:00;97406.59;;;6.17
19102;BMP280;9683;49.028;12.064;2023-02-01T12:26:47;97428.56;;;6.18
19102;BMP280;9683;49.028;12.064;2023-02-01T12:29:36;97412.88;;;6.16
19102;BMP280;9683;49.028;12.064;2023-02-01T12:35:14;97399.09;;;6.21
19102;BMP280;9683;49.028;12.064;2023-02-01T12:37:54;97398.94;;;6.22
19102;BMP280;9683;49.028;12.064;2023-02-01T12:40:37;97396.66;;;6.19
19102;BMP280;9683;49.028;12.064;2023-02-01T12:43:13;97457.38;;;6.19
19102;BMP280;9683;49.028;12.064;2023-02-01T12:45:50;97473.63;;;6.16
19102;BMP280;9683;49.028;12.064;2023-02-01T12:48:25;97400.69;;;6.15
19102;BMP280;9683;49.028;12.064;2023-02-01T12:50:56;97395.22;;;6.17
19102;BMP280;9683;49.028;12.064;2023-02-01T12:53:37;97429.72;;;6.15
19102;BMP280;9683;49.028;12.064;2023-02-01T12:56:09;97422.59;;;6.09
19102;BMP280;9683;49.028;12.064;2023-02-01T12:58:42;97410.56;;;6.07
19102;BMP280;9683;49.028;12.064;2023-02-01T13:01:12;97428.81;;;6.02
19102;BMP280;9683;49.028;12.064;2023-02-01T13:03:49;97447.22;;;5.95
19102;BMP280;9683;49.028;12.064;2023-02-01T13:06:19;97410.81;;;5.90
19102;BMP280;9683;49.028;12.064;2023-02-01T13:08:54;97404.00;;;5.81
19102;BMP280;9683;49.028;12.064;2023-02-01T13:11:26;97433.38;;;5.72
19102;BMP280;9683;49.028;12.064;2023-02-01T13:14:00;97422.28;;;5.62
19102;BMP280;9683;49.028;12.064;2023-02-01T13:16:30;97413.69;;;5.53
19102;BMP280;9683;49.028;12.064;2023-02-01T13:19:05;97412.84;;;5.52
19102;BMP280;9683;49.028;12.064;2023-02-01T13:21:36;97404.34;;;5.50
19102;BMP280;9683;49.028;12.064;2023-02-01T13:24:07;97436.16;;;5.49
19102;BMP280;9683;49.028;12.064;2023-02-01T13:26:42;97385.88;;;5.50
19102;BMP280;9683;49.028;12.064;2023-02-01T13:29:10;97410.59;;;5.49
19102;BMP280;9683;49.028;12.064;2023-02-01T13:31:54;97394.41;;;5.52
19102;BMP280;9683;49.028;12.064;2023-02-01T13:34:48;97409.22;;;5.53
19102;BMP280;9683;49.028;12.064;2023-02-01T13:37:32;97401.75;;;5.57
19102;BMP280;9683;49.028;12.064;2023-02-01T13:40:24;97393.28;;;5.62
19102;BMP280;9683;49.028;12.064;2023-02-01T13:42:56;97396.72;;;5.62
19102;BMP280;9683;49.028;12.064;2023-02-01T13:45:27;97381.34;;;5.66
19102;BMP280;9683;49.028;12.064;2023-02-01T13:47:56;97373.81;;;5.63
19102;BMP280;9683;49.028;12.064;2023-02-01T13:50:27;97376.44;;;5.63
19102;BMP280;9683;49.028;12.064;2023-02-01T13:52:57;97378.53;;;5.67
19102;BMP280;9683;49.028;12.064;2023-02-01T13:55:32;97395.78;;;5.70
19102;BMP280;9683;49.028;12.064;2023-02-01T13:58:02;97360.47;;;5.71
19102;BMP280;9683;49.028;12.064;2023-02-01T14:00:33;97370.41;;;5.69
19102;BMP280;9683;49.028;12.064;2023-02-01T14:03:21;97382.84;;;5.75
19102;BMP280;9683;49.028;12.064;2023-02-01T14:06:14;97378.44;;;5.82
19102;BMP280;9683;49.028;12.064;2023-02-01T14:11:40;97379.69;;;5.86
19102;BMP280;9683;49.028;12.064;2023-02-01T14:17:35;97362.34;;;5.98
19102;BMP280;9683;49.028;12.064;2023-02-01T14:23:23;97380.94;;;6.11
19102;BMP280;9683;49.028;12.064;2023-02-01T14:26:10;97373.84;;;6.12
19102;BMP280;9683;49.028;12.064;2023-02-01T14:28:42;97374.47;;;6.14
19102;BMP280;9683;49.028;12.064;2023-02-01T14:31:33;97371.19;;;6.12
19102;BMP280;9683;49.028;12.064;2023-02-01T14:34:03;97369.19;;;6.14
19102;BMP280;9683;49.028;12.064;2023-02-01T14:36:43;97368.81;;;6.17
19102;BMP280;9683;49.028;12.064;2023-02-01T14:39:23;97364.28;;;6.11
19102;BMP280;9683;49.028;12.064;2023-02-01T14:41:54;97378.13;;;6.13
19102;BMP280;9683;49.028;12.064;2023-02-01T14:44:25;97372.03;;;6.12
19102;BMP280;9683;49.028;12.064;2023-02-01T14:50:11;97381.75;;;6.12
19102;BMP280;9683;49.028;12.064;2023-02-01T14:52:40;97380.34;;;6.09
19102;BMP280;9683;49.028;12.064;2023-02-01T14:55:15;97398.19;;;6.07
19102;BMP280;9683;49.028;12.064;2023-02-01T14:57:46;97391.50;;;6.11
19102;BMP280;9683;49.028;12.064;2023-02-01T15:00:21;97405.91;;;6.09
19102;BMP280;9683;49.028;12.064;2023-02-01T15:02:49;97492.69;;;6.12
19102;BMP280;9683;49.028;12.064;2023-02-01T15:05:27;97372.03;;;6.12